Time,TemperatureF,DewpointF,PressureIn,WindDirection,WindDirectionDegrees,WindSpeedMPH,WindSpeedGustMPH,Humidity,HourlyPrecipIn,Conditions,Clouds,dailyrainin,SoftwareType,DateUTC
2019-06-18 00:04:43,57,51.3,29.69,East,90,0,0,81,0,,,0,meteohub,2019-06-17 23:04:43,
2019-06-18 00:15:07,56.8,50.7,29.69,East,90,0,0,80,0,,,0,meteohub,2019-06-17 23:15:07,
2019-06-18 00:25:25,56.8,50.7,29.69,East,90,0,0,80,0,,,0,meteohub,2019-06-17 23:25:25,
2019-06-18 00:35:39,56.7,50.7,29.69,East,90,0,0,80,0,,,0,meteohub,2019-06-17 23:35:39,
2019-06-18 00:45:53,56.3,50.2,29.69,East,90,0,0,80,0,,,0,meteohub,2019-06-17 23:45:53,
2019-06-18 00:56:15,56.1,50,29.69,East,90,0,0,80,0,,,0,meteohub,2019-06-17 23:56:15,
2019-06-18 01:06:42,55.9,49.8,29.69,East,90,0,0,80,0,,,0,meteohub,2019-06-18 00:06:42,
2019-06-18 01:16:52,55.8,49.6,29.69,East,90,0,0,80,0,,,0,meteohub,2019-06-18 00:16:52,
2019-06-18 01:27:14,55.4,49.3,29.66,East,90,0,0,80,0,,,0,meteohub,2019-06-18 00:27:14,
2019-06-18 01:37:32,55.2,49.5,29.66,East,90,0,0,81,0,,,0,meteohub,2019-06-18 00:37:32,
2019-06-18 01:48:06,55.2,49.5,29.66,East,90,0,0,81,0,,,0,meteohub,2019-06-18 00:48:06,
2019-06-18 01:58:14,55.4,49.3,29.66,East,90,0,0,80,0,,,0,meteohub,2019-06-18 00:58:14,
2019-06-18 02:08:20,55.4,49.3,29.66,East,90,0,0,80,0,,,0,meteohub,2019-06-18 01:08:20,
2019-06-18 02:18:38,55,49.3,29.66,East,90,0,0,81,0,,,0,meteohub,2019-06-18 01:18:38,
2019-06-18 02:29:23,54.9,49.1,29.66,East,90,0,0,81,0,,,0,meteohub,2019-06-18 01:29:23,
2019-06-18 02:39:31,54.7,48.9,29.66,East,90,0,0,81,0,,,0,meteohub,2019-06-18 01:39:31,
2019-06-18 02:49:40,54.3,49.3,29.66,East,90,0,0,83,0,,,0,meteohub,2019-06-18 01:49:40,
2019-06-18 02:59:47,54.1,49.1,29.66,East,90,0,0,83,0,,,0,meteohub,2019-06-18 01:59:47,
2019-06-18 03:10:18,54.1,49.1,29.66,East,90,0,0,83,0,,,0,meteohub,2019-06-18 02:10:18,
2019-06-18 03:20:41,54.5,49.1,29.66,East,90,0,0,82,0,,,0,meteohub,2019-06-18 02:20:41,
2019-06-18 03:30:58,55,49.5,29.66,East,90,0,0,81,0,,,0,meteohub,2019-06-18 02:30:58,
2019-06-18 03:41:17,55.2,48.7,29.66,East,90,0,0,79,0,,,0,meteohub,2019-06-18 02:41:17,
2019-06-18 03:51:24,55.4,48.7,29.66,East,90,0,0,78,0,,,0,meteohub,2019-06-18 02:51:24,
2019-06-18 04:01:57,55.4,48.7,29.66,East,90,0,0,78,0,,,0,meteohub,2019-06-18 03:01:57,
2019-06-18 04:12:03,55.2,48.7,29.66,East,90,0,0,79,0,,,0,meteohub,2019-06-18 03:12:03,
2019-06-18 04:22:10,55.2,48.2,29.66,East,90,0,0,77,0,,,0,meteohub,2019-06-18 03:22:10,
2019-06-18 04:32:17,55.4,48.7,29.66,East,90,0,0,78,0,,,0,meteohub,2019-06-18 03:32:17,
2019-06-18 04:42:26,55.4,48.7,29.66,East,90,0,0,78,0,,,0,meteohub,2019-06-18 03:42:26,
2019-06-18 04:52:37,55.2,48.2,29.63,East,90,0,0,77,0,,,0,meteohub,2019-06-18 03:52:37,
2019-06-18 05:02:42,55,48.6,29.63,East,90,0,0,79,0,,,0,meteohub,2019-06-18 04:02:42,
2019-06-18 05:13:15,54.9,48.7,29.63,East,90,0,0,80,0,,,0,meteohub,2019-06-18 04:13:15,
2019-06-18 05:23:43,54.5,49.1,29.66,East,90,0,0,82,0,,,0,meteohub,2019-06-18 04:23:43,
2019-06-18 05:34:04,54.3,49.3,29.66,East,90,0,0,83,0,,,0,meteohub,2019-06-18 04:34:04,
2019-06-18 05:44:05,54.1,49.1,29.66,East,90,0,0,83,0,,,0,meteohub,2019-06-18 04:44:05,
2019-06-18 05:54:38,54.3,49.6,29.63,East,90,0,0,84,0,,,0,meteohub,2019-06-18 04:54:38,
2019-06-18 06:05:10,54.5,49.8,29.63,East,90,0,0,84,0,,,0,meteohub,2019-06-18 05:05:10,
2019-06-18 06:15:36,55,50.4,29.63,East,90,0,0,84,0,,,0,meteohub,2019-06-18 05:15:36,
2019-06-18 06:25:51,55.2,50.2,29.66,East,90,0,0,83,0,,,0,meteohub,2019-06-18 05:25:51,
2019-06-18 06:36:11,55.8,50.7,29.66,East,90,0,0,83,0,,,0,meteohub,2019-06-18 05:36:11,
2019-06-18 06:46:36,56.3,50.9,29.63,East,90,0,0,82,0,,,0,meteohub,2019-06-18 05:46:36,
2019-06-18 06:57:00,56.7,50.2,29.66,East,90,0,0,79,0,,,0,meteohub,2019-06-18 05:57:00,
2019-06-18 07:07:22,57,51.3,29.66,East,90,0,0,81,0,,,0,meteohub,2019-06-18 06:07:22,
2019-06-18 07:17:54,57.2,51.4,29.63,East,90,0,0,81,0,,,0,meteohub,2019-06-18 06:17:54,
2019-06-18 07:28:29,57.4,51.3,29.63,East,90,0,0,80,0,,,0,meteohub,2019-06-18 06:28:29,
2019-06-18 07:39:03,58.1,51.8,29.63,East,90,0,0,79,0,,,0,meteohub,2019-06-18 06:39:03,
2019-06-18 07:49:05,58.6,51.4,29.66,East,90,0,0,77,0,,,0,meteohub,2019-06-18 06:49:05,
2019-06-18 07:59:22,59,50.7,29.63,East,90,0,0,74,0,,,0,meteohub,2019-06-18 06:59:22,
2019-06-18 08:09:48,59.4,51.4,29.63,East,90,0,0,75,0,,,0,meteohub,2019-06-18 07:09:48,
2019-06-18 08:20:09,60.1,50.7,29.66,East,90,0,0,71,0,,,0,meteohub,2019-06-18 07:20:09,
2019-06-18 08:30:30,61,50,29.63,East,90,0,0,67,0,,,0,meteohub,2019-06-18 07:30:30,
2019-06-18 08:40:31,61.7,50.5,29.63,East,90,0,0,66,0,,,0,meteohub,2019-06-18 07:40:31,
2019-06-18 08:50:57,62.4,49.6,29.63,East,90,0,0,63,0,,,0,meteohub,2019-06-18 07:50:57,
2019-06-18 09:01:17,63.3,51.8,29.63,East,90,0,0,66,0,,,0,meteohub,2019-06-18 08:01:17,
2019-06-18 09:11:44,64,51.8,29.63,East,90,0,0,64,0,,,0,meteohub,2019-06-18 08:11:44,
2019-06-18 09:22:06,65.3,51.1,29.63,East,90,0,0,60,0,,,0,meteohub,2019-06-18 08:22:06,
2019-06-18 09:32:08,67.5,50,29.63,East,90,0,0,53,0,,,0,meteohub,2019-06-18 08:32:08,
2019-06-18 09:42:36,68.4,49.3,29.63,East,90,0,0,50,0,,,0,meteohub,2019-06-18 08:42:36,
2019-06-18 09:52:40,67.5,48.7,29.63,East,90,0,8,51,0,,,0,meteohub,2019-06-18 08:52:40,
2019-06-18 10:03:05,67.3,50.7,29.63,East,90,0,8,55,0,,,0,meteohub,2019-06-18 09:03:05,
2019-06-18 10:13:34,67.6,51.4,29.63,East,90,0,0,56,0,,,0,meteohub,2019-06-18 09:13:34,
2019-06-18 10:24:01,68.4,48.9,29.63,East,90,0,0,50,0,,,0,meteohub,2019-06-18 09:24:01,
2019-06-18 10:34:25,69.1,48,29.63,East,90,0,0,47,0,,,0,meteohub,2019-06-18 09:34:25,
2019-06-18 10:44:49,69.6,48.6,29.63,East,90,0,0,47,0,,,0,meteohub,2019-06-18 09:44:49,
2019-06-18 10:55:20,69.6,48.9,29.63,East,90,0,9,47,0,,,0,meteohub,2019-06-18 09:55:20,
2019-06-18 11:05:51,69.3,50.9,29.63,East,90,0,0,52,0,,,0,meteohub,2019-06-18 10:05:51,
2019-06-18 11:16:19,68.2,50.4,29.63,East,90,0,0,53,0,,,0,meteohub,2019-06-18 10:16:19,
2019-06-18 11:26:44,66.7,49.6,29.63,East,90,0,9,54,0,,,0,meteohub,2019-06-18 10:26:44,
2019-06-18 11:37:05,65.1,54.1,29.63,East,90,0,8,67,0,,,0,meteohub,2019-06-18 10:37:05,
2019-06-18 11:47:31,63.5,55.8,29.63,East,90,0,8,76,0,,,0,meteohub,2019-06-18 10:47:31,
2019-06-18 11:57:54,62.6,55.6,29.63,East,90,0,0,78,0,,,0,meteohub,2019-06-18 10:57:54,
2019-06-18 12:08:16,62.2,56.3,29.63,East,90,0,0,81,0.01,,,0.01,meteohub,2019-06-18 11:08:16,
2019-06-18 12:18:41,62.8,57.2,29.63,East,90,0,0,82,0.01,,,0.01,meteohub,2019-06-18 11:18:41,
2019-06-18 12:28:41,63,56.3,29.60,East,90,0,0,79,0.01,,,0.01,meteohub,2019-06-18 11:28:41,
2019-06-18 12:38:42,63.3,57.4,29.60,East,90,0,0,81,0.01,,,0.01,meteohub,2019-06-18 11:38:42,
2019-06-18 12:48:53,63.1,57.6,29.63,East,90,0,0,82,0.01,,,0.01,meteohub,2019-06-18 11:48:53,
2019-06-18 12:59:13,62.8,57.6,29.63,East,90,0,0,83,0,,,0.01,meteohub,2019-06-18 11:59:13,
2019-06-18 13:09:35,62.6,57.7,29.63,East,90,0,0,84,0,,,0.01,meteohub,2019-06-18 12:09:35,
2019-06-18 13:19:57,61.9,57.4,29.60,East,90,0,0,85,0.01,,,0.02,meteohub,2019-06-18 12:19:57,
2019-06-18 13:30:19,62.2,57.9,29.60,East,90,0,11,86,0.02,,,0.03,meteohub,2019-06-18 12:30:19,
2019-06-18 13:40:40,62.2,57.9,29.60,East,90,0,11,86,0.02,,,0.03,meteohub,2019-06-18 12:40:40,
2019-06-18 13:51:07,61.7,57.4,29.60,East,90,0,7,86,0.02,,,0.03,meteohub,2019-06-18 12:51:07,
2019-06-18 14:01:08,61.7,57.4,29.60,East,90,0,0,86,0.01,,,0.03,meteohub,2019-06-18 13:01:08,
2019-06-18 14:11:57,62.4,58.1,29.60,East,90,0,0,86,0,,,0.03,meteohub,2019-06-18 13:11:57,
2019-06-18 14:22:19,63.3,58.8,29.57,East,90,0,11,85,0,,,0.03,meteohub,2019-06-18 13:22:19,
2019-06-18 14:32:44,64.2,59.5,29.57,East,90,0,12,85,0,,,0.03,meteohub,2019-06-18 13:32:44,
2019-06-18 14:42:48,64.6,59.7,29.57,East,90,0,12,84,0,,,0.03,meteohub,2019-06-18 13:42:48,
2019-06-18 14:53:07,64.4,59.2,29.57,East,90,0,9,83,0,,,0.03,meteohub,2019-06-18 13:53:07,
2019-06-18 15:03:34,64.9,59.7,29.57,East,90,0,9,83,0,,,0.03,meteohub,2019-06-18 14:03:34,
2019-06-18 15:13:57,64.8,59.5,29.57,East,90,0,13,83,0,,,0.03,meteohub,2019-06-18 14:13:57,
2019-06-18 15:24:24,64.6,59.4,29.57,East,90,0,11,83,0,,,0.03,meteohub,2019-06-18 14:24:24,
2019-06-18 15:34:50,64.2,59.4,29.57,East,90,0,0,84,0,,,0.03,meteohub,2019-06-18 14:34:50,
2019-06-18 15:45:13,63.7,59,29.57,East,90,0,0,84,0,,,0.03,meteohub,2019-06-18 14:45:13,
2019-06-18 15:55:40,63.3,58.8,29.57,East,90,0,0,85,0,,,0.03,meteohub,2019-06-18 14:55:40,
2019-06-18 16:05:57,63.3,59,29.57,East,90,0,0,86,0,,,0.03,meteohub,2019-06-18 15:05:57,
2019-06-18 16:16:26,63.1,58.8,29.57,East,90,0,0,86,0.01,,,0.04,meteohub,2019-06-18 15:16:26,
2019-06-18 16:26:41,63,58.6,29.57,East,90,0,0,86,0.01,,,0.04,meteohub,2019-06-18 15:26:41,
2019-06-18 16:37:10,62.8,58.5,29.57,East,90,0,0,86,0.01,,,0.04,meteohub,2019-06-18 15:37:10,
2019-06-18 16:47:33,62.6,58.3,29.57,East,90,0,0,86,0.01,,,0.04,meteohub,2019-06-18 15:47:33,
2019-06-18 16:57:59,62.4,58.1,29.57,East,90,0,0,86,0.04,,,0.07,meteohub,2019-06-18 15:57:59,
2019-06-18 17:08:26,62.2,57.7,29.57,East,90,0,0,85,0.06,,,0.11,meteohub,2019-06-18 16:08:26,
2019-06-18 17:18:34,62.2,57.7,29.57,East,90,0,0,85,0.06,,,0.11,meteohub,2019-06-18 16:18:34,
2019-06-18 17:28:56,62.2,57.7,29.54,East,90,0,0,85,0.06,,,0.11,meteohub,2019-06-18 16:28:56,
2019-06-18 17:39:19,62.2,57.4,29.54,East,90,0,0,84,0.06,,,0.11,meteohub,2019-06-18 16:39:19,
2019-06-18 17:49:46,62.4,57.6,29.54,East,90,0,0,84,0.03,,,0.11,meteohub,2019-06-18 16:49:46,
2019-06-18 18:00:10,62.8,57.6,29.54,East,90,0,0,83,0,,,0.11,meteohub,2019-06-18 17:00:10,
2019-06-18 18:10:38,63,57.7,29.54,East,90,0,8,83,0,,,0.11,meteohub,2019-06-18 17:10:38,
2019-06-18 18:21:02,63.1,57.9,29.54,East,90,0,9,83,0,,,0.11,meteohub,2019-06-18 17:21:02,
2019-06-18 18:31:37,63,57.7,29.54,East,90,0,0,83,0,,,0.11,meteohub,2019-06-18 17:31:37,
2019-06-18 18:42:05,63,57.7,29.54,East,90,0,0,83,0,,,0.11,meteohub,2019-06-18 17:42:05,
2019-06-18 18:52:32,62.8,57.6,29.54,East,90,0,0,83,0,,,0.11,meteohub,2019-06-18 17:52:32,
2019-06-18 19:02:36,62.4,57.2,29.54,East,90,0,8,83,0,,,0.11,meteohub,2019-06-18 18:02:36,
2019-06-18 19:13:06,62.4,57.2,29.51,East,90,0,8,83,0,,,0.11,meteohub,2019-06-18 18:13:06,
2019-06-18 19:23:18,62.4,57.2,29.51,East,90,0,0,83,0,,,0.11,meteohub,2019-06-18 18:23:18,
2019-06-18 19:33:27,62.4,57.2,29.51,East,90,0,0,83,0,,,0.11,meteohub,2019-06-18 18:33:27,
2019-06-18 19:43:29,62.2,57,29.51,East,90,0,7,83,0,,,0.11,meteohub,2019-06-18 18:43:29,
2019-06-18 19:53:52,62.2,57,29.51,East,90,0,0,83,0,,,0.11,meteohub,2019-06-18 18:53:52,
2019-06-18 20:04:20,62.2,57,29.51,East,90,0,0,83,0,,,0.11,meteohub,2019-06-18 19:04:20,
2019-06-18 20:14:44,62.1,56.8,29.51,East,90,0,0,83,0,,,0.11,meteohub,2019-06-18 19:14:44,
2019-06-18 20:25:18,61.9,56.7,29.51,East,90,0,0,83,0,,,0.11,meteohub,2019-06-18 19:25:18,
2019-06-18 20:35:38,61.9,56.3,29.51,East,90,0,8,82,0,,,0.11,meteohub,2019-06-18 19:35:38,
2019-06-18 20:45:40,61.7,56.5,29.51,East,90,0,8,83,0,,,0.11,meteohub,2019-06-18 19:45:40,
2019-06-18 20:56:01,61.3,56.1,29.51,East,90,0,0,83,0,,,0.11,meteohub,2019-06-18 19:56:01,
2019-06-18 21:06:30,61.3,56.1,29.51,East,90,0,0,83,0,,,0.11,meteohub,2019-06-18 20:06:30,
2019-06-18 21:16:57,61,55.8,29.51,East,90,0,0,83,0,,,0.11,meteohub,2019-06-18 20:16:57,
2019-06-18 21:27:20,60.8,55.6,29.51,East,90,0,0,83,0,,,0.11,meteohub,2019-06-18 20:27:20,
2019-06-18 21:37:43,60.8,55.6,29.51,East,90,0,0,83,0,,,0.11,meteohub,2019-06-18 20:37:43,
2019-06-18 21:48:06,60.6,55.4,29.51,East,90,0,0,83,0,,,0.11,meteohub,2019-06-18 20:48:06,
2019-06-18 21:58:38,60.6,55.4,29.51,East,90,0,0,83,0,,,0.11,meteohub,2019-06-18 20:58:38,
2019-06-18 22:09:04,60.6,55.4,29.51,East,90,0,0,83,0.01,,,0.11,meteohub,2019-06-18 21:09:04,
2019-06-18 22:19:30,60.8,55.2,29.54,East,90,0,0,82,0.04,,,0.15,meteohub,2019-06-18 21:19:30,
2019-06-18 22:29:53,60.8,55.2,29.51,East,90,0,0,82,0.06,,,0.17,meteohub,2019-06-18 21:29:53,
2019-06-18 22:40:20,60.4,55.2,29.51,East,90,0,0,83,0.07,,,0.18,meteohub,2019-06-18 21:40:20,
2019-06-18 22:50:45,60.3,54.7,29.51,East,90,0,0,82,0.07,,,0.18,meteohub,2019-06-18 21:50:45,
2019-06-18 23:01:16,59.9,54.3,29.48,East,90,0,0,82,0.06,,,0.18,meteohub,2019-06-18 22:01:16,
2019-06-18 23:11:59,59.7,54.1,29.48,East,90,0,0,82,0.03,,,0.18,meteohub,2019-06-18 22:11:59,
2019-06-18 23:22:01,59.7,54.1,29.48,East,90,0,0,82,0,,,0.18,meteohub,2019-06-18 22:22:01,
2019-06-18 23:32:37,59.7,54.1,29.48,East,90,0,0,82,0,,,0.18,meteohub,2019-06-18 22:32:37,
2019-06-18 23:42:45,59.7,54.1,29.48,East,90,0,0,82,0,,,0.18,meteohub,2019-06-18 22:42:45,
2019-06-18 23:52:50,59.4,53.8,29.48,East,90,0,9,82,0,,,0.18,meteohub,2019-06-18 22:52:50,